sensor_id;sensor_type;location;lat;lon;timestamp;P1;durP1;ratioP1;P2;durP2;ratioP2
48552;SDS011;34335;51.566;6.994;2022-11-20T00:01:05;7.47;;;3.50;;
48552;SDS011;34335;51.566;6.994;2022-11-20T00:03:35;5.03;;;2.28;;
48552;SDS011;34335;51.566;6.994;2022-11-20T00:06:04;3.15;;;2.00;;
48552;SDS011;34335;51.566;6.994;2022-11-20T00:08:31;5.85;;;2.42;;
48552;SDS011;34335;51.566;6.994;2022-11-20T00:10:56;4.43;;;2.10;;
48552;SDS011;34335;51.566;6.994;2022-11-20T00:13:22;3.47;;;2.20;;
48552;SDS011;34335;51.566;6.994;2022-11-20T00:15:47;3.95;;;2.70;;
48552;SDS011;34335;51.566;6.994;2022-11-20T00:18:13;7.10;;;3.20;;
48552;SDS011;34335;51.566;6.994;2022-11-20T00:20:38;7.57;;;3.00;;
48552;SDS011;34335;51.566;6.994;2022-11-20T00:23:04;4.63;;;2.80;;
48552;SDS011;34335;51.566;6.994;2022-11-20T00:25:30;7.05;;;2.67;;
48552;SDS011;34335;51.566;6.994;2022-11-20T00:27:56;2.92;;;1.65;;
48552;SDS011;34335;51.566;6.994;2022-11-20T00:30:21;10.30;;;3.95;;
48552;SDS011;34335;51.566;6.994;2022-11-20T00:32:46;4.40;;;2.88;;
48552;SDS011;34335;51.566;6.994;2022-11-20T00:35:11;9.75;;;4.28;;
48552;SDS011;34335;51.566;6.994;2022-11-20T00:37:37;6.38;;;2.90;;
48552;SDS011;34335;51.566;6.994;2022-11-20T00:40:02;6.28;;;3.22;;
48552;SDS011;34335;51.566;6.994;2022-11-20T00:42:28;4.15;;;2.22;;
48552;SDS011;34335;51.566;6.994;2022-11-20T00:44:53;4.25;;;2.35;;
48552;SDS011;34335;51.566;6.994;2022-11-20T00:47:18;5.72;;;2.50;;
48552;SDS011;34335;51.566;6.994;2022-11-20T00:49:43;4.63;;;2.67;;
48552;SDS011;34335;51.566;6.994;2022-11-20T00:52:09;8.40;;;3.50;;
48552;SDS011;34335;51.566;6.994;2022-11-20T00:54:34;4.50;;;1.92;;
48552;SDS011;34335;51.566;6.994;2022-11-20T00:57:00;13.32;;;2.70;;
48552;SDS011;34335;51.566;6.994;2022-11-20T00:59:25;5.00;;;2.70;;
48552;SDS011;34335;51.566;6.994;2022-11-20T01:01:50;3.78;;;2.38;;
48552;SDS011;34335;51.566;6.994;2022-11-20T01:04:15;4.93;;;2.67;;
48552;SDS011;34335;51.566;6.994;2022-11-20T01:06:41;4.75;;;2.25;;
48552;SDS011;34335;51.566;6.994;2022-11-20T01:09:09;7.10;;;2.28;;
48552;SDS011;34335;51.566;6.994;2022-11-20T01:11:37;3.38;;;1.90;;
48552;SDS011;34335;51.566;6.994;2022-11-20T01:14:04;5.90;;;2.75;;
48552;SDS011;34335;51.566;6.994;2022-11-20T01:16:42;4.10;;;1.90;;
48552;SDS011;34335;51.566;6.994;2022-11-20T01:19:10;5.07;;;1.55;;
48552;SDS011;34335;51.566;6.994;2022-11-20T01:21:38;5.50;;;2.58;;
48552;SDS011;34335;51.566;6.994;2022-11-20T01:24:05;7.38;;;2.17;;
48552;SDS011;34335;51.566;6.994;2022-11-20T01:26:33;3.85;;;1.77;;
48552;SDS011;34335;51.566;6.994;2022-11-20T01:29:01;7.25;;;3.33;;
48552;SDS011;34335;51.566;6.994;2022-11-20T01:31:35;4.95;;;3.05;;
48552;SDS011;34335;51.566;6.994;2022-11-20T01:34:02;3.65;;;2.60;;
48552;SDS011;34335;51.566;6.994;2022-11-20T01:36:34;7.07;;;2.55;;
48552;SDS011;34335;51.566;6.994;2022-11-20T01:39:02;5.95;;;2.05;;
48552;SDS011;34335;51.566;6.994;2022-11-20T01:41:32;7.30;;;2.95;;
48552;SDS011;34335;51.566;6.994;2022-11-20T01:44:18;7.10;;;2.67;;
48552;SDS011;34335;51.566;6.994;2022-11-20T01:46:52;6.88;;;2.92;;
48552;SDS011;34335;51.566;6.994;2022-11-20T01:49:39;7.60;;;2.28;;
48552;SDS011;34335;51.566;6.994;2022-11-20T01:52:22;4.57;;;2.22;;
48552;SDS011;34335;51.566;6.994;2022-11-20T01:55:09;6.82;;;3.10;;
48552;SDS011;34335;51.566;6.994;2022-11-20T01:57:38;9.80;;;3.05;;
48552;SDS011;34335;51.566;6.994;2022-11-20T02:00:07;9.43;;;3.03;;
48552;SDS011;34335;51.566;6.994;2022-11-20T02:02:35;4.03;;;2.30;;
48552;SDS011;34335;51.566;6.994;2022-11-20T02:05:04;2.55;;;1.48;;
48552;SDS011;34335;51.566;6.994;2022-11-20T02:07:39;2.97;;;2.08;;
48552;SDS011;34335;51.566;6.994;2022-11-20T02:10:05;4.72;;;2.65;;
48552;SDS011;34335;51.566;6.994;2022-11-20T02:12:31;4.20;;;2.15;;
48552;SDS011;34335;51.566;6.994;2022-11-20T02:15:16;4.78;;;2.33;;
48552;SDS011;34335;51.566;6.994;2022-11-20T02:17:41;5.38;;;2.42;;
48552;SDS011;34335;51.566;6.994;2022-11-20T02:20:06;3.22;;;2.17;;
48552;SDS011;34335;51.566;6.994;2022-11-20T02:22:35;6.95;;;3.00;;
48552;SDS011;34335;51.566;6.994;2022-11-20T02:25:09;5.97;;;2.92;;
48552;SDS011;34335;51.566;6.994;2022-11-20T02:27:36;5.05;;;2.15;;
48552;SDS011;34335;51.566;6.994;2022-11-20T02:30:02;5.00;;;2.80;;
48552;SDS011;34335;51.566;6.994;2022-11-20T02:32:33;5.38;;;2.33;;
48552;SDS011;34335;51.566;6.994;2022-11-20T02:35:35;2.67;;;1.83;;
48552;SDS011;34335;51.566;6.994;2022-11-20T02:37:52;7.80;;;3.05;;
48552;SDS011;34335;51.566;6.994;2022-11-20T02:40:19;4.13;;;2.08;;
48552;SDS011;34335;51.566;6.994;2022-11-20T02:42:45;3.78;;;2.35;;
48552;SDS011;34335;51.566;6.994;2022-11-20T02:45:10;3.38;;;1.73;;
48552;SDS011;34335;51.566;6.994;2022-11-20T02:47:36;3.53;;;1.98;;
48552;SDS011;34335;51.566;6.994;2022-11-20T02:50:02;5.90;;;2.80;;
48552;SDS011;34335;51.566;6.994;2022-11-20T02:52:29;5.97;;;2.10;;
48552;SDS011;34335;51.566;6.994;2022-11-20T02:54:55;3.45;;;2.00;;
48552;SDS011;34335;51.566;6.994;2022-11-20T02:57:20;5.70;;;2.25;;
48552;SDS011;34335;51.566;6.994;2022-11-20T02:59:45;5.82;;;2.92;;
48552;SDS011;34335;51.566;6.994;2022-11-20T03:02:11;4.18;;;2.42;;
48552;SDS011;34335;51.566;6.994;2022-11-20T03:04:36;6.55;;;2.45;;
48552;SDS011;34335;51.566;6.994;2022-11-20T03:07:01;3.90;;;1.90;;
48552;SDS011;34335;51.566;6.994;2022-11-20T03:09:27;5.78;;;2.78;;
48552;SDS011;34335;51.566;6.994;2022-11-20T03:11:52;6.47;;;1.92;;
48552;SDS011;34335;51.566;6.994;2022-11-20T03:14:17;2.35;;;1.75;;
48552;SDS011;34335;51.566;6.994;2022-11-20T03:16:43;4.75;;;1.98;;
48552;SDS011;34335;51.566;6.994;2022-11-20T03:19:08;6.38;;;2.53;;
48552;SDS011;34335;51.566;6.994;2022-11-20T03:21:33;3.03;;;1.75;;
48552;SDS011;34335;51.566;6.994;2022-11-20T03:23:59;4.65;;;2.13;;
48552;SDS011;34335;51.566;6.994;2022-11-20T03:26:26;2.92;;;1.90;;
48552;SDS011;34335;51.566;6.994;2022-11-20T03:28:53;7.40;;;2.85;;
48552;SDS011;34335;51.566;6.994;2022-11-20T03:31:21;4.80;;;1.73;;
48552;SDS011;34335;51.566;6.994;2022-11-20T03:33:48;3.03;;;1.52;;
48552;SDS011;34335;51.566;6.994;2022-11-20T03:36:15;5.80;;;2.35;;
48552;SDS011;34335;51.566;6.994;2022-11-20T03:38:41;4.20;;;1.98;;
48552;SDS011;34335;51.566;6.994;2022-11-20T03:41:08;8.00;;;2.22;;
48552;SDS011;34335;51.566;6.994;2022-11-20T03:43:35;8.35;;;3.22;;
48552;SDS011;34335;51.566;6.994;2022-11-20T03:46:01;2.53;;;1.35;;
48552;SDS011;34335;51.566;6.994;2022-11-20T03:48:26;2.63;;;1.48;;
48552;SDS011;34335;51.566;6.994;2022-11-20T03:50:53;8.90;;;2.42;;
48552;SDS011;34335;51.566;6.994;2022-11-20T03:53:31;3.42;;;2.08;;
48552;SDS011;34335;51.566;6.994;2022-11-20T03:55:56;6.05;;;2.72;;
48552;SDS011;34335;51.566;6.994;2022-11-20T03:58:21;5.80;;;2.47;;
48552;SDS011;34335;51.566;6.994;2022-11-20T04:00:46;3.58;;;1.58;;
48552;SDS011;34335;51.566;6.994;2022-11-20T04:03:12;4.28;;;2.45;;
48552;SDS011;34335;51.566;6.994;2022-11-20T04:05:37;8.05;;;3.70;;
48552;SDS011;34335;51.566;6.994;2022-11-20T04:08:02;5.25;;;2.58;;
48552;SDS011;34335;51.566;6.994;2022-11-20T04:10:27;4.65;;;2.33;;
48552;SDS011;34335;51.566;6.994;2022-11-20T04:12:53;8.82;;;3.60;;
48552;SDS011;34335;51.566;6.994;2022-11-20T04:15:18;7.88;;;2.60;;
48552;SDS011;34335;51.566;6.994;2022-11-20T04:17:43;5.72;;;2.72;;
48552;SDS011;34335;51.566;6.994;2022-11-20T04:20:09;3.90;;;2.45;;
48552;SDS011;34335;51.566;6.994;2022-11-20T04:22:34;5.38;;;2.40;;
48552;SDS011;34335;51.566;6.994;2022-11-20T04:24:59;4.30;;;2.35;;
48552;SDS011;34335;51.566;6.994;2022-11-20T04:27:25;5.93;;;3.05;;
48552;SDS011;34335;51.566;6.994;2022-11-20T04:29:50;5.05;;;2.65;;
48552;SDS011;34335;51.566;6.994;2022-11-20T04:32:15;4.00;;;2.17;;
48552;SDS011;34335;51.566;6.994;2022-11-20T04:34:41;4.57;;;2.22;;
48552;SDS011;34335;51.566;6.994;2022-11-20T04:37:06;4.93;;;2.60;;
48552;SDS011;34335;51.566;6.994;2022-11-20T04:39:31;4.88;;;2.08;;
48552;SDS011;34335;51.566;6.994;2022-11-20T04:41:56;5.80;;;1.77;;
48552;SDS011;34335;51.566;6.994;2022-11-20T04:44:40;7.60;;;3.00;;
48552;SDS011;34335;51.566;6.994;2022-11-20T04:47:05;6.00;;;2.53;;
48552;SDS011;34335;51.566;6.994;2022-11-20T04:49:30;4.40;;;2.40;;
48552;SDS011;34335;51.566;6.994;2022-11-20T04:51:56;7.35;;;3.17;;
48552;SDS011;34335;51.566;6.994;2022-11-20T04:54:22;3.67;;;1.55;;
48552;SDS011;34335;51.566;6.994;2022-11-20T04:56:48;5.45;;;3.00;;
48552;SDS011;34335;51.566;6.994;2022-11-20T04:59:13;6.53;;;2.30;;
48552;SDS011;34335;51.566;6.994;2022-11-20T05:01:39;2.83;;;1.80;;
48552;SDS011;34335;51.566;6.994;2022-11-20T05:04:04;5.93;;;3.40;;
48552;SDS011;34335;51.566;6.994;2022-11-20T05:06:30;2.08;;;1.63;;
48552;SDS011;34335;51.566;6.994;2022-11-20T05:08:56;6.63;;;3.08;;
48552;SDS011;34335;51.566;6.994;2022-11-20T05:11:21;7.40;;;2.67;;
48552;SDS011;34335;51.566;6.994;2022-11-20T05:13:47;2.45;;;1.27;;
48552;SDS011;34335;51.566;6.994;2022-11-20T05:16:23;4.55;;;2.53;;
48552;SDS011;34335;51.566;6.994;2022-11-20T05:18:49;8.27;;;2.90;;
48552;SDS011;34335;51.566;6.994;2022-11-20T05:21:15;6.80;;;2.75;;
48552;SDS011;34335;51.566;6.994;2022-11-20T05:23:42;4.45;;;1.88;;
48552;SDS011;34335;51.566;6.994;2022-11-20T05:26:12;4.72;;;1.98;;
48552;SDS011;34335;51.566;6.994;2022-11-20T05:28:39;4.95;;;2.90;;
48552;SDS011;34335;51.566;6.994;2022-11-20T05:31:06;6.53;;;2.60;;
48552;SDS011;34335;51.566;6.994;2022-11-20T05:33:33;6.13;;;2.22;;
48552;SDS011;34335;51.566;6.994;2022-11-20T05:35:59;3.70;;;1.85;;
48552;SDS011;34335;51.566;6.994;2022-11-20T05:38:24;3.58;;;1.88;;
48552;SDS011;34335;51.566;6.994;2022-11-20T05:40:50;4.78;;;2.25;;
48552;SDS011;34335;51.566;6.994;2022-11-20T05:43:15;2.30;;;1.77;;
48552;SDS011;34335;51.566;6.994;2022-11-20T05:45:40;6.07;;;2.33;;
48552;SDS011;34335;51.566;6.994;2022-11-20T05:48:05;5.43;;;2.13;;
48552;SDS011;34335;51.566;6.994;2022-11-20T05:50:31;8.98;;;2.42;;
48552;SDS011;34335;51.566;6.994;2022-11-20T05:52:59;6.40;;;1.60;;
48552;SDS011;34335;51.566;6.994;2022-11-20T05:55:25;4.22;;;2.63;;
48552;SDS011;34335;51.566;6.994;2022-11-20T05:57:54;8.38;;;2.60;;
48552;SDS011;34335;51.566;6.994;2022-11-20T06:00:20;3.38;;;1.70;;
48552;SDS011;34335;51.566;6.994;2022-11-20T06:02:45;8.88;;;3.10;;
48552;SDS011;34335;51.566;6.994;2022-11-20T06:05:11;4.13;;;2.05;;
48552;SDS011;34335;51.566;6.994;2022-11-20T06:07:36;7.97;;;3.83;;
48552;SDS011;34335;51.566;6.994;2022-11-20T06:10:02;6.97;;;3.58;;
48552;SDS011;34335;51.566;6.994;2022-11-20T06:12:27;3.22;;;2.28;;
48552;SDS011;34335;51.566;6.994;2022-11-20T06:14:52;6.18;;;2.28;;
48552;SDS011;34335;51.566;6.994;2022-11-20T06:17:18;4.05;;;1.92;;
48552;SDS011;34335;51.566;6.994;2022-11-20T06:19:43;8.48;;;2.38;;
48552;SDS011;34335;51.566;6.994;2022-11-20T06:22:08;6.18;;;2.53;;
48552;SDS011;34335;51.566;6.994;2022-11-20T06:24:33;7.70;;;2.70;;
48552;SDS011;34335;51.566;6.994;2022-11-20T06:26:59;6.45;;;2.60;;
48552;SDS011;34335;51.566;6.994;2022-11-20T06:29:24;5.25;;;2.38;;
48552;SDS011;34335;51.566;6.994;2022-11-20T06:31:49;2.70;;;1.67;;
48552;SDS011;34335;51.566;6.994;2022-11-20T06:34:15;5.10;;;2.78;;
48552;SDS011;34335;51.566;6.994;2022-11-20T06:36:40;8.18;;;2.72;;
48552;SDS011;34335;51.566;6.994;2022-11-20T06:39:05;7.03;;;2.47;;
48552;SDS011;34335;51.566;6.994;2022-11-20T06:41:31;5.95;;;2.28;;
48552;SDS011;34335;51.566;6.994;2022-11-20T06:43:56;2.80;;;1.42;;
48552;SDS011;34335;51.566;6.994;2022-11-20T06:46:21;3.92;;;2.22;;
48552;SDS011;34335;51.566;6.994;2022-11-20T06:48:47;5.55;;;3.47;;
48552;SDS011;34335;51.566;6.994;2022-11-20T06:51:14;5.97;;;2.97;;
48552;SDS011;34335;51.566;6.994;2022-11-20T06:53:39;4.85;;;3.78;;
48552;SDS011;34335;51.566;6.994;2022-11-20T06:56:05;6.53;;;3.22;;
48552;SDS011;34335;51.566;6.994;2022-11-20T06:58:32;4.38;;;2.22;;
48552;SDS011;34335;51.566;6.994;2022-11-20T07:00:59;3.78;;;2.40;;
48552;SDS011;34335;51.566;6.994;2022-11-20T07:03:26;7.47;;;2.50;;
48552;SDS011;34335;51.566;6.994;2022-11-20T07:05:54;9.02;;;3.50;;
48552;SDS011;34335;51.566;6.994;2022-11-20T07:08:20;4.38;;;1.65;;
48552;SDS011;34335;51.566;6.994;2022-11-20T07:10:45;5.28;;;2.58;;
48552;SDS011;34335;51.566;6.994;2022-11-20T07:13:10;7.78;;;2.63;;
48552;SDS011;34335;51.566;6.994;2022-11-20T07:15:36;4.28;;;2.05;;
48552;SDS011;34335;51.566;6.994;2022-11-20T07:18:01;7.28;;;2.08;;
48552;SDS011;34335;51.566;6.994;2022-11-20T07:20:27;3.30;;;1.50;;
48552;SDS011;34335;51.566;6.994;2022-11-20T07:22:53;5.80;;;2.03;;
48552;SDS011;34335;51.566;6.994;2022-11-20T07:25:20;4.13;;;2.17;;
48552;SDS011;34335;51.566;6.994;2022-11-20T07:27:45;4.22;;;2.20;;
48552;SDS011;34335;51.566;6.994;2022-11-20T07:30:10;7.93;;;2.95;;
48552;SDS011;34335;51.566;6.994;2022-11-20T07:32:36;4.97;;;2.13;;
48552;SDS011;34335;51.566;6.994;2022-11-20T07:35:01;4.95;;;1.55;;
48552;SDS011;34335;51.566;6.994;2022-11-20T07:37:27;6.45;;;2.63;;
48552;SDS011;34335;51.566;6.994;2022-11-20T07:39:52;4.35;;;2.00;;
48552;SDS011;34335;51.566;6.994;2022-11-20T07:42:17;4.78;;;3.17;;
48552;SDS011;34335;51.566;6.994;2022-11-20T07:44:42;3.28;;;2.28;;
48552;SDS011;34335;51.566;6.994;2022-11-20T07:47:08;3.72;;;1.60;;
48552;SDS011;34335;51.566;6.994;2022-11-20T07:49:33;4.07;;;2.75;;
48552;SDS011;34335;51.566;6.994;2022-11-20T07:51:58;5.32;;;2.60;;
48552;SDS011;34335;51.566;6.994;2022-11-20T07:54:23;5.90;;;2.22;;
48552;SDS011;34335;51.566;6.994;2022-11-20T07:56:49;7.22;;;3.22;;
48552;SDS011;34335;51.566;6.994;2022-11-20T07:59:15;4.95;;;2.95;;
48552;SDS011;34335;51.566;6.994;2022-11-20T08:01:41;5.10;;;1.98;;
48552;SDS011;34335;51.566;6.994;2022-11-20T08:04:07;4.43;;;2.60;;
48552;SDS011;34335;51.566;6.994;2022-11-20T08:06:32;4.78;;;2.42;;
48552;SDS011;34335;51.566;6.994;2022-11-20T08:08:58;5.43;;;1.98;;
48552;SDS011;34335;51.566;6.994;2022-11-20T08:11:23;5.60;;;2.25;;
48552;SDS011;34335;51.566;6.994;2022-11-20T08:14:07;8.43;;;3.28;;
48552;SDS011;34335;51.566;6.994;2022-11-20T08:16:43;7.18;;;3.58;;
48552;SDS011;34335;51.566;6.994;2022-11-20T08:19:09;5.20;;;3.30;;
48552;SDS011;34335;51.566;6.994;2022-11-20T08:21:35;7.13;;;4.88;;
48552;SDS011;34335;51.566;6.994;2022-11-20T08:24:00;12.80;;;4.85;;
48552;SDS011;34335;51.566;6.994;2022-11-20T08:26:26;11.10;;;4.55;;
48552;SDS011;34335;51.566;6.994;2022-11-20T08:28:57;7.03;;;3.55;;
48552;SDS011;34335;51.566;6.994;2022-11-20T08:31:24;9.95;;;4.50;;
48552;SDS011;34335;51.566;6.994;2022-11-20T08:33:50;11.60;;;4.90;;
48552;SDS011;34335;51.566;6.994;2022-11-20T08:36:16;7.25;;;5.30;;
48552;SDS011;34335;51.566;6.994;2022-11-20T08:38:42;8.35;;;3.75;;
48552;SDS011;34335;51.566;6.994;2022-11-20T08:41:11;12.30;;;5.00;;
48552;SDS011;34335;51.566;6.994;2022-11-20T08:43:49;7.60;;;4.25;;
48552;SDS011;34335;51.566;6.994;2022-11-20T08:46:22;8.17;;;3.63;;
48552;SDS011;34335;51.566;6.994;2022-11-20T08:48:52;11.30;;;4.10;;
48552;SDS011;34335;51.566;6.994;2022-11-20T08:51:18;11.27;;;4.45;;
48552;SDS011;34335;51.566;6.994;2022-11-20T08:53:44;9.77;;;3.92;;
48552;SDS011;34335;51.566;6.994;2022-11-20T08:56:10;8.20;;;3.40;;
48552;SDS011;34335;51.566;6.994;2022-11-20T08:58:36;10.10;;;3.90;;
48552;SDS011;34335;51.566;6.994;2022-11-20T09:01:02;11.23;;;3.00;;
48552;SDS011;34335;51.566;6.994;2022-11-20T09:03:27;3.63;;;2.33;;
48552;SDS011;34335;51.566;6.994;2022-11-20T09:05:56;7.28;;;2.80;;
48552;SDS011;34335;51.566;6.994;2022-11-20T09:08:23;4.93;;;2.63;;
48552;SDS011;34335;51.566;6.994;2022-11-20T09:10:51;7.95;;;3.10;;
48552;SDS011;34335;51.566;6.994;2022-11-20T09:13:17;3.85;;;2.22;;
48552;SDS011;34335;51.566;6.994;2022-11-20T09:15:42;9.30;;;3.65;;
48552;SDS011;34335;51.566;6.994;2022-11-20T09:18:07;5.47;;;3.53;;
48552;SDS011;34335;51.566;6.994;2022-11-20T09:20:32;5.65;;;3.50;;
48552;SDS011;34335;51.566;6.994;2022-11-20T09:22:58;7.97;;;3.97;;
48552;SDS011;34335;51.566;6.994;2022-11-20T09:25:23;10.40;;;4.28;;
48552;SDS011;34335;51.566;6.994;2022-11-20T09:27:54;8.00;;;2.83;;
48552;SDS011;34335;51.566;6.994;2022-11-20T09:30:22;12.20;;;4.10;;
48552;SDS011;34335;51.566;6.994;2022-11-20T09:32:47;6.95;;;3.80;;
48552;SDS011;34335;51.566;6.994;2022-11-20T09:35:13;11.05;;;3.90;;
48552;SDS011;34335;51.566;6.994;2022-11-20T09:37:39;5.53;;;3.38;;
48552;SDS011;34335;51.566;6.994;2022-11-20T09:40:05;8.65;;;3.72;;
48552;SDS011;34335;51.566;6.994;2022-11-20T09:42:37;11.75;;;5.30;;
48552;SDS011;34335;51.566;6.994;2022-11-20T09:48:26;6.53;;;3.35;;
48552;SDS011;34335;51.566;6.994;2022-11-20T09:51:04;8.05;;;3.80;;
48552;SDS011;34335;51.566;6.994;2022-11-20T09:56:42;7.97;;;4.00;;
48552;SDS011;34335;51.566;6.994;2022-11-20T09:59:18;11.43;;;4.75;;
48552;SDS011;34335;51.566;6.994;2022-11-20T10:01:52;11.98;;;5.15;;
48552;SDS011;34335;51.566;6.994;2022-11-20T10:04:19;10.85;;;5.07;;
48552;SDS011;34335;51.566;6.994;2022-11-20T10:09:37;14.23;;;5.43;;
48552;SDS011;34335;51.566;6.994;2022-11-20T10:12:11;8.77;;;4.70;;
48552;SDS011;34335;51.566;6.994;2022-11-20T10:25:43;12.32;;;3.55;;
48552;SDS011;34335;51.566;6.994;2022-11-20T10:28:16;11.52;;;3.97;;
48552;SDS011;34335;51.566;6.994;2022-11-20T10:30:59;7.05;;;4.07;;
48552;SDS011;34335;51.566;6.994;2022-11-20T10:33:29;8.43;;;4.38;;
48552;SDS011;34335;51.566;6.994;2022-11-20T10:40:03;5.28;;;2.95;;
48552;SDS011;34335;51.566;6.994;2022-11-20T10:42:04;12.55;;;4.72;;
48552;SDS011;34335;51.566;6.994;2022-11-20T10:44:36;5.72;;;2.72;;
48552;SDS011;34335;51.566;6.994;2022-11-20T10:47:22;9.23;;;2.78;;
48552;SDS011;34335;51.566;6.994;2022-11-20T10:49:48;2.70;;;2.03;;
48552;SDS011;34335;51.566;6.994;2022-11-20T10:52:23;4.40;;;1.85;;
48552;SDS011;34335;51.566;6.994;2022-11-20T10:55:10;3.75;;;2.03;;
48552;SDS011;34335;51.566;6.994;2022-11-20T10:57:54;11.65;;;3.08;;
48552;SDS011;34335;51.566;6.994;2022-11-20T11:00:30;5.72;;;3.88;;
48552;SDS011;34335;51.566;6.994;2022-11-20T11:02:56;8.55;;;3.30;;
48552;SDS011;34335;51.566;6.994;2022-11-20T11:08:14;6.63;;;2.55;;
48552;SDS011;34335;51.566;6.994;2022-11-20T11:10:51;7.05;;;2.65;;
48552;SDS011;34335;51.566;6.994;2022-11-20T11:13:21;10.15;;;3.80;;
48552;SDS011;34335;51.566;6.994;2022-11-20T11:15:48;9.05;;;3.53;;
48552;SDS011;34335;51.566;6.994;2022-11-20T11:18:22;10.63;;;4.88;;
48552;SDS011;34335;51.566;6.994;2022-11-20T11:20:56;7.30;;;3.85;;
48552;SDS011;34335;51.566;6.994;2022-11-20T11:26:00;7.97;;;4.15;;
48552;SDS011;34335;51.566;6.994;2022-11-20T11:28:27;10.90;;;4.80;;
48552;SDS011;34335;51.566;6.994;2022-11-20T11:30:53;14.13;;;3.80;;
48552;SDS011;34335;51.566;6.994;2022-11-20T11:33:20;6.53;;;3.55;;
48552;SDS011;34335;51.566;6.994;2022-11-20T11:35:48;5.70;;;2.83;;
48552;SDS011;34335;51.566;6.994;2022-11-20T11:38:19;8.80;;;4.15;;
48552;SDS011;34335;51.566;6.994;2022-11-20T11:40:47;11.13;;;4.25;;
48552;SDS011;34335;51.566;6.994;2022-11-20T11:43:20;8.70;;;3.63;;
48552;SDS011;34335;51.566;6.994;2022-11-20T11:48:55;9.38;;;4.03;;
48552;SDS011;34335;51.566;6.994;2022-11-20T11:51:22;11.73;;;4.95;;
48552;SDS011;34335;51.566;6.994;2022-11-20T11:53:48;7.95;;;4.30;;
48552;SDS011;34335;51.566;6.994;2022-11-20T11:56:15;8.80;;;4.18;;
48552;SDS011;34335;51.566;6.994;2022-11-20T11:58:45;9.90;;;4.03;;
48552;SDS011;34335;51.566;6.994;2022-11-20T12:03:52;7.15;;;3.80;;
48552;SDS011;34335;51.566;6.994;2022-11-20T12:06:27;8.98;;;3.33;;
48552;SDS011;34335;51.566;6.994;2022-11-20T12:08:57;9.73;;;4.50;;
48552;SDS011;34335;51.566;6.994;2022-11-20T12:17:10;11.43;;;5.53;;
48552;SDS011;34335;51.566;6.994;2022-11-20T12:19:37;9.48;;;3.50;;
48552;SDS011;34335;51.566;6.994;2022-11-20T12:28:00;8.85;;;4.43;;
48552;SDS011;34335;51.566;6.994;2022-11-20T12:30:27;10.25;;;5.47;;
48552;SDS011;34335;51.566;6.994;2022-11-20T12:33:39;10.07;;;4.70;;
48552;SDS011;34335;51.566;6.994;2022-11-20T12:44:57;8.93;;;4.20;;
48552;SDS011;34335;51.566;6.994;2022-11-20T12:58:04;9.77;;;4.43;;
48552;SDS011;34335;51.566;6.994;2022-11-20T13:00:54;7.28;;;4.22;;
48552;SDS011;34335;51.566;6.994;2022-11-20T13:03:39;10.50;;;5.15;;
48552;SDS011;34335;51.566;6.994;2022-11-20T13:06:16;10.30;;;5.28;;
48552;SDS011;34335;51.566;6.994;2022-11-20T13:08:52;9.38;;;4.05;;
48552;SDS011;34335;51.566;6.994;2022-11-20T13:14:09;10.50;;;4.68;;
48552;SDS011;34335;51.566;6.994;2022-11-20T13:16:49;9.30;;;4.47;;
48552;SDS011;34335;51.566;6.994;2022-11-20T13:19:23;8.82;;;4.00;;
48552;SDS011;34335;51.566;6.994;2022-11-20T13:21:49;10.00;;;4.60;;
48552;SDS011;34335;51.566;6.994;2022-11-20T13:29:26;14.73;;;4.93;;
48552;SDS011;34335;51.566;6.994;2022-11-20T13:32:00;12.30;;;3.92;;
48552;SDS011;34335;51.566;6.994;2022-11-20T13:34:31;13.30;;;5.20;;
48552;SDS011;34335;51.566;6.994;2022-11-20T13:36:57;16.38;;;3.40;;
48552;SDS011;34335;51.566;6.994;2022-11-20T13:39:35;13.00;;;3.80;;
48552;SDS011;34335;51.566;6.994;2022-11-20T13:44:41;10.75;;;4.30;;
48552;SDS011;34335;51.566;6.994;2022-11-20T13:47:25;7.13;;;3.20;;
48552;SDS011;34335;51.566;6.994;2022-11-20T13:49:52;7.60;;;3.97;;
48552;SDS011;34335;51.566;6.994;2022-11-20T13:58:24;6.80;;;3.40;;
48552;SDS011;34335;51.566;6.994;2022-11-20T14:01:09;8.20;;;3.38;;
48552;SDS011;34335;51.566;6.994;2022-11-20T14:03:59;8.43;;;4.70;;
48552;SDS011;34335;51.566;6.994;2022-11-20T14:06:32;6.68;;;2.85;;
48552;SDS011;34335;51.566;6.994;2022-11-20T14:09:03;9.20;;;3.78;;
48552;SDS011;34335;51.566;6.994;2022-11-20T14:11:29;10.30;;;3.47;;
48552;SDS011;34335;51.566;6.994;2022-11-20T14:16:23;5.25;;;2.58;;
48552;SDS011;34335;51.566;6.994;2022-11-20T14:18:49;8.75;;;2.85;;
48552;SDS011;34335;51.566;6.994;2022-11-20T14:21:21;8.10;;;4.40;;
48552;SDS011;34335;51.566;6.994;2022-11-20T14:24:02;5.13;;;2.53;;
48552;SDS011;34335;51.566;6.994;2022-11-20T14:26:30;8.40;;;3.00;;
48552;SDS011;34335;51.566;6.994;2022-11-20T14:28:57;14.35;;;4.38;;
48552;SDS011;34335;51.566;6.994;2022-11-20T14:31:23;9.00;;;4.05;;
48552;SDS011;34335;51.566;6.994;2022-11-20T14:33:52;7.70;;;4.10;;
48552;SDS011;34335;51.566;6.994;2022-11-20T14:36:19;16.25;;;3.58;;
48552;SDS011;34335;51.566;6.994;2022-11-20T14:38:47;8.52;;;3.38;;
48552;SDS011;34335;51.566;6.994;2022-11-20T14:41:19;9.43;;;3.40;;
48552;SDS011;34335;51.566;6.994;2022-11-20T14:43:57;10.10;;;2.90;;
48552;SDS011;34335;51.566;6.994;2022-11-20T14:46:24;8.07;;;3.67;;
48552;SDS011;34335;51.566;6.994;2022-11-20T14:48:56;11.40;;;4.32;;
48552;SDS011;34335;51.566;6.994;2022-11-20T14:51:25;6.80;;;3.05;;
48552;SDS011;34335;51.566;6.994;2022-11-20T14:53:54;4.18;;;1.88;;
48552;SDS011;34335;51.566;6.994;2022-11-20T14:56:23;11.90;;;4.10;;
48552;SDS011;34335;51.566;6.994;2022-11-20T14:58:58;12.13;;;3.53;;
48552;SDS011;34335;51.566;6.994;2022-11-20T15:01:27;7.50;;;2.70;;
48552;SDS011;34335;51.566;6.994;2022-11-20T15:04:01;8.98;;;3.70;;
48552;SDS011;34335;51.566;6.994;2022-11-20T15:06:32;6.07;;;3.28;;
48552;SDS011;34335;51.566;6.994;2022-11-20T15:08:58;8.80;;;3.05;;
48552;SDS011;34335;51.566;6.994;2022-11-20T15:11:30;7.40;;;3.70;;
48552;SDS011;34335;51.566;6.994;2022-11-20T15:14:00;9.68;;;3.97;;
48552;SDS011;34335;51.566;6.994;2022-11-20T15:16:29;6.78;;;3.15;;
48552;SDS011;34335;51.566;6.994;2022-11-20T15:18:55;10.07;;;2.95;;
48552;SDS011;34335;51.566;6.994;2022-11-20T15:21:21;8.05;;;3.40;;
48552;SDS011;34335;51.566;6.994;2022-11-20T15:23:46;9.95;;;2.78;;
48552;SDS011;34335;51.566;6.994;2022-11-20T15:26:13;9.07;;;3.03;;
48552;SDS011;34335;51.566;6.994;2022-11-20T15:28:41;5.53;;;2.53;;
48552;SDS011;34335;51.566;6.994;2022-11-20T15:31:12;4.85;;;2.60;;
48552;SDS011;34335;51.566;6.994;2022-11-20T15:33:38;8.70;;;3.03;;
48552;SDS011;34335;51.566;6.994;2022-11-20T15:36:03;8.63;;;3.58;;
48552;SDS011;34335;51.566;6.994;2022-11-20T15:38:29;7.90;;;3.35;;
48552;SDS011;34335;51.566;6.994;2022-11-20T15:40:55;7.00;;;4.10;;
48552;SDS011;34335;51.566;6.994;2022-11-20T15:43:20;7.43;;;3.08;;
48552;SDS011;34335;51.566;6.994;2022-11-20T15:45:47;7.13;;;2.75;;
48552;SDS011;34335;51.566;6.994;2022-11-20T15:48:19;6.55;;;3.05;;
48552;SDS011;34335;51.566;6.994;2022-11-20T15:50:54;9.60;;;4.32;;
48552;SDS011;34335;51.566;6.994;2022-11-20T15:53:24;7.82;;;3.33;;
48552;SDS011;34335;51.566;6.994;2022-11-20T15:55:49;6.07;;;3.47;;
48552;SDS011;34335;51.566;6.994;2022-11-20T15:58:15;8.40;;;3.80;;
48552;SDS011;34335;51.566;6.994;2022-11-20T16:00:43;7.82;;;3.58;;
48552;SDS011;34335;51.566;6.994;2022-11-20T16:03:10;13.48;;;5.28;;
48552;SDS011;34335;51.566;6.994;2022-11-20T16:05:36;13.20;;;4.25;;
48552;SDS011;34335;51.566;6.994;2022-11-20T16:08:02;8.95;;;4.57;;
48552;SDS011;34335;51.566;6.994;2022-11-20T16:10:27;12.30;;;3.65;;
48552;SDS011;34335;51.566;6.994;2022-11-20T16:12:52;11.50;;;5.00;;
48552;SDS011;34335;51.566;6.994;2022-11-20T16:15:36;4.90;;;2.72;;
48552;SDS011;34335;51.566;6.994;2022-11-20T16:18:11;9.30;;;3.78;;